createdAt,value
2022-10-14T00:01:24.523Z,48.28
2022-10-14T00:03:58.960Z,48.17
2022-10-14T00:06:30.692Z,48.10
2022-10-14T00:09:06.304Z,46.17
2022-10-14T00:11:36.551Z,46.92
2022-10-14T00:14:08.119Z,46.22
2022-10-14T00:16:37.677Z,46.60
2022-10-14T00:19:05.991Z,45.70
2022-10-14T00:21:42.503Z,48.05
2022-10-14T00:24:12.533Z,47.47
2022-10-14T00:26:40.221Z,47.10
2022-10-14T00:29:12.348Z,46.17
2022-10-14T00:31:40.355Z,46.75
2022-10-14T00:34:07.033Z,46.53
2022-10-14T00:36:37.295Z,46.95
2022-10-14T00:39:05.055Z,46.90
2022-10-14T00:41:33.683Z,47.47
2022-10-14T00:44:15.279Z,47.15
2022-10-14T00:46:46.354Z,48.13
2022-10-14T00:49:30.905Z,46.85
2022-10-14T00:52:11.810Z,47.90
2022-10-14T00:54:51.900Z,47.78
2022-10-14T00:57:19.634Z,49.72
2022-10-14T00:59:46.598Z,47.83
2022-10-14T01:02:13.325Z,47.35
2022-10-14T01:04:42.158Z,47.50
2022-10-14T01:07:18.898Z,48.40
2022-10-14T01:10:22.911Z,47.47
2022-10-14T01:13:23.422Z,46.58
2022-10-14T01:16:25.697Z,46.92
2022-10-14T01:19:29.680Z,45.33
2022-10-14T01:22:16.756Z,45.05
2022-10-14T01:25:03.052Z,45.58
2022-10-14T01:28:07.269Z,46.28
2022-10-14T01:31:09.728Z,51.25
2022-10-14T01:33:40.108Z,49.45
2022-10-14T01:36:30.216Z,47.42
2022-10-14T01:39:01.770Z,48.80
2022-10-14T01:41:35.660Z,48.20
2022-10-14T01:44:08.546Z,48.47
2022-10-14T01:46:38.032Z,43.85
2022-10-14T01:49:14.591Z,43.25
2022-10-14T01:51:56.773Z,44.28
2022-10-14T01:54:33.328Z,42.33
2022-10-14T01:57:05.216Z,45.80
2022-10-14T01:59:35.644Z,44.85
2022-10-14T02:02:03.530Z,42.72
2022-10-14T02:04:39.916Z,44.15
2022-10-14T02:07:19.496Z,46.70
2022-10-14T02:10:19.745Z,46.55
2022-10-14T02:13:01.419Z,46.25
2022-10-14T02:15:42.195Z,44.95
2022-10-14T02:18:44.667Z,45.60
2022-10-14T02:21:45.159Z,42.80
2022-10-14T02:24:20.487Z,42.47
2022-10-14T02:26:49.710Z,43.85
2022-10-14T02:29:19.133Z,42.58
2022-10-14T02:31:47.308Z,44.67
2022-10-14T02:34:18.389Z,43.97
2022-10-14T02:36:46.079Z,43.75
2022-10-14T02:39:18.811Z,44.90
2022-10-14T02:41:45.601Z,44.95
2022-10-14T02:44:12.333Z,45.08
2022-10-14T02:46:39.959Z,43.35
2022-10-14T02:49:06.782Z,43.33
2022-10-14T02:51:33.487Z,43.38
2022-10-14T02:54:00.121Z,42.85
2022-10-14T02:56:26.931Z,40.58
2022-10-14T02:58:53.566Z,40.35
2022-10-14T03:01:20.296Z,41.45
2022-10-14T03:03:47.221Z,39.85
2022-10-14T03:06:14.366Z,37.78
2022-10-14T03:08:41.189Z,37.67
2022-10-14T03:11:07.955Z,37.50
2022-10-14T03:13:34.560Z,37.78
2022-10-14T03:16:01.197Z,37.47
2022-10-14T03:18:27.967Z,37.40
2022-10-14T03:20:54.642Z,38.30
2022-10-14T03:23:21.318Z,36.85
2022-10-14T03:25:48.009Z,35.97
2022-10-14T03:28:14.783Z,35.22
2022-10-14T03:30:42.537Z,34.78
2022-10-14T03:33:13.220Z,35.45
2022-10-14T03:35:42.790Z,36.03
2022-10-14T03:38:09.503Z,35.95
2022-10-14T03:40:37.263Z,36.65
2022-10-14T03:43:05.265Z,36.55
2022-10-14T03:45:31.911Z,36.50
2022-10-14T03:48:00.162Z,37.70
2022-10-14T03:50:27.977Z,38.47
2022-10-14T03:52:55.892Z,37.55
2022-10-14T03:55:24.103Z,37.20
2022-10-14T03:57:51.925Z,37.60
2022-10-14T04:00:22.711Z,38.97
2022-10-14T04:02:51.564Z,37.38
2022-10-14T04:05:20.235Z,37.10
2022-10-14T04:07:47.720Z,37.88
2022-10-14T04:10:17.357Z,37.70
2022-10-14T04:12:47.520Z,38.00
2022-10-14T04:15:14.218Z,37.13
2022-10-14T04:17:43.006Z,35.88
2022-10-14T04:20:11.401Z,36.95
2022-10-14T04:22:48.024Z,38.47
2022-10-14T04:25:16.111Z,39.17
2022-10-14T04:27:43.129Z,38.67
2022-10-14T04:30:10.694Z,36.40
2022-10-14T04:32:40.015Z,40.45
2022-10-14T04:35:08.251Z,40.70
2022-10-14T04:37:36.065Z,38.97
2022-10-14T04:40:07.656Z,40.38
2022-10-14T04:42:36.883Z,39.83
2022-10-14T04:45:04.166Z,40.50
2022-10-14T04:47:34.706Z,41.28
2022-10-14T04:50:04.866Z,40.97
2022-10-14T04:52:35.089Z,39.90
2022-10-14T04:55:01.817Z,37.80
2022-10-14T04:57:28.467Z,38.13
2022-10-14T04:59:55.119Z,40.08
2022-10-14T05:02:22.017Z,37.95
2022-10-14T05:04:48.841Z,38.13
2022-10-14T05:07:15.658Z,37.00
2022-10-14T05:09:47.658Z,37.88
2022-10-14T05:12:15.795Z,37.13
2022-10-14T05:14:42.489Z,36.08
2022-10-14T05:17:09.204Z,37.03
2022-10-14T05:19:35.805Z,36.90
2022-10-14T05:22:02.435Z,36.55
2022-10-14T05:24:29.061Z,35.63
2022-10-14T05:26:55.648Z,36.97
2022-10-14T05:29:23.645Z,35.13
2022-10-14T05:31:50.280Z,38.15
2022-10-14T05:34:17.056Z,37.53
2022-10-14T05:36:44.835Z,35.08
2022-10-14T05:39:11.622Z,35.75
2022-10-14T05:41:41.985Z,34.30
2022-10-14T05:44:12.212Z,34.67
2022-10-14T05:46:40.985Z,35.15
2022-10-14T05:49:07.619Z,35.17
2022-10-14T05:51:34.499Z,34.35
2022-10-14T05:54:01.507Z,33.53
2022-10-14T05:56:28.148Z,34.17
2022-10-14T05:58:54.752Z,34.25
2022-10-14T06:01:22.945Z,34.03
2022-10-14T06:03:52.753Z,35.35
2022-10-14T06:06:19.865Z,38.50
2022-10-14T06:08:46.532Z,35.72
2022-10-14T06:11:13.257Z,33.40
2022-10-14T06:13:40.081Z,38.33
2022-10-14T06:16:10.467Z,34.30
2022-10-14T06:18:37.605Z,32.75
2022-10-14T06:21:05.702Z,34.08
2022-10-14T06:23:32.407Z,32.95
2022-10-14T06:25:59.044Z,31.52
2022-10-14T06:28:26.091Z,32.50
2022-10-14T06:30:55.802Z,33.55
2022-10-14T06:33:22.812Z,32.47
2022-10-14T06:35:50.483Z,33.28
2022-10-14T06:38:18.081Z,33.75
2022-10-14T06:40:44.696Z,32.80
2022-10-14T06:43:11.424Z,32.25
2022-10-14T06:45:39.329Z,32.33
2022-10-14T06:48:07.301Z,32.38
2022-10-14T06:50:35.223Z,31.30
2022-10-14T06:53:04.611Z,30.88
2022-10-14T06:55:34.535Z,31.77
2022-10-14T06:58:01.186Z,34.05
2022-10-14T07:00:30.032Z,32.70
2022-10-14T07:03:06.720Z,32.08
2022-10-14T07:05:35.844Z,32.28
2022-10-14T07:08:03.157Z,31.98
2022-10-14T07:10:33.898Z,31.95
2022-10-14T07:13:03.274Z,35.58
2022-10-14T07:15:36.194Z,32.95
2022-10-14T07:18:06.558Z,31.02
2022-10-14T07:20:36.302Z,32.20
2022-10-14T07:23:04.102Z,31.45
2022-10-14T07:25:34.820Z,31.63
2022-10-14T07:28:04.493Z,31.80
2022-10-14T07:30:32.317Z,31.73
2022-10-14T07:32:59.698Z,31.50
2022-10-14T07:35:26.446Z,30.98
2022-10-14T07:37:53.265Z,30.67
2022-10-14T07:40:20.602Z,32.70
2022-10-14T07:42:47.439Z,29.50
2022-10-14T07:45:14.150Z,30.40
2022-10-14T07:47:40.825Z,31.60
2022-10-14T07:50:07.883Z,32.00
2022-10-14T07:52:36.624Z,33.85
2022-10-14T07:55:04.819Z,33.95
2022-10-14T07:57:31.553Z,32.28
2022-10-14T07:59:58.357Z,33.53
2022-10-14T08:02:25.277Z,31.58
2022-10-14T08:04:53.497Z,31.15
2022-10-14T08:07:20.584Z,30.33
2022-10-14T08:09:47.478Z,31.50
2022-10-14T08:12:14.352Z,31.88
2022-10-14T08:14:42.020Z,31.00
2022-10-14T08:17:08.682Z,32.95
2022-10-14T08:19:35.489Z,32.28
2022-10-14T08:22:02.232Z,31.35
2022-10-14T08:24:28.965Z,31.50
2022-10-14T08:26:57.656Z,31.48
2022-10-14T08:29:24.551Z,33.00
2022-10-14T08:31:52.089Z,32.85
2022-10-14T08:34:18.816Z,32.33
2022-10-14T08:36:45.677Z,32.25
2022-10-14T08:39:12.431Z,34.08
2022-10-14T08:42:16.543Z,33.05
2022-10-14T08:44:51.171Z,33.63
2022-10-14T08:47:23.914Z,33.47
2022-10-14T08:49:56.763Z,32.83
2022-10-14T08:52:33.648Z,33.88
2022-10-14T08:55:26.996Z,32.28
2022-10-14T08:58:21.742Z,32.50
2022-10-14T09:00:52.191Z,31.10
2022-10-14T09:03:24.347Z,30.92
2022-10-14T09:06:01.649Z,31.83
2022-10-14T09:08:39.458Z,31.95
2022-10-14T09:11:18.464Z,29.13
2022-10-14T09:13:49.329Z,31.50
2022-10-14T09:16:24.277Z,30.75
2022-10-14T09:19:22.802Z,31.30
2022-10-14T09:21:53.822Z,31.10
2022-10-14T09:24:27.381Z,30.23
2022-10-14T09:29:31.656Z,29.98
2022-10-14T09:32:02.927Z,29.60
2022-10-14T09:34:49.850Z,32.42
2022-10-14T09:37:32.742Z,32.38
2022-10-14T09:40:25.409Z,31.02
2022-10-14T09:43:10.156Z,27.77
2022-10-14T09:46:05.547Z,28.15
2022-10-14T09:48:49.012Z,29.17
2022-10-14T09:51:33.615Z,27.60
2022-10-14T09:54:03.848Z,27.25
2022-10-14T09:56:41.901Z,26.70
2022-10-14T09:59:20.884Z,26.92
2022-10-14T10:01:55.498Z,27.27
2022-10-14T10:04:41.697Z,27.50
2022-10-14T10:09:55.815Z,28.02
2022-10-14T10:12:34.663Z,27.00
2022-10-14T10:15:06.811Z,26.02
2022-10-14T10:17:38.305Z,24.88
2022-10-14T10:20:30.003Z,25.30
2022-10-14T10:22:57.271Z,27.17
2022-10-14T10:25:27.731Z,24.95
2022-10-14T10:27:58.376Z,25.17
2022-10-14T10:30:31.797Z,23.48
2022-10-14T10:33:20.334Z,24.55
2022-10-14T10:35:55.871Z,24.52
2022-10-14T10:38:24.553Z,24.90
2022-10-14T10:41:14.134Z,23.98
2022-10-14T10:43:56.191Z,23.30
2022-10-14T10:46:40.981Z,24.17
2022-10-14T10:49:30.969Z,22.83
2022-10-14T10:52:17.358Z,23.15
2022-10-14T10:55:28.146Z,23.17
2022-10-14T10:58:20.819Z,22.17
2022-10-14T11:00:58.736Z,23.30
2022-10-14T11:03:39.748Z,22.20
2022-10-14T11:06:21.104Z,22.23
2022-10-14T11:09:02.921Z,23.40
2022-10-14T11:11:37.236Z,22.67
2022-10-14T11:14:09.474Z,22.55
2022-10-14T11:16:36.147Z,23.33
2022-10-14T11:19:27.069Z,22.95
2022-10-14T11:21:58.767Z,23.90
2022-10-14T11:24:40.700Z,22.45
2022-10-14T11:27:32.010Z,23.35
2022-10-14T11:30:19.038Z,22.45
2022-10-14T11:33:16.737Z,22.58
2022-10-14T11:35:53.530Z,21.02
2022-10-14T11:38:30.343Z,22.10
2022-10-14T11:40:57.008Z,21.85
2022-10-14T11:43:32.365Z,21.88
2022-10-14T11:46:18.723Z,21.52
2022-10-14T11:48:55.806Z,21.77
2022-10-14T11:51:52.858Z,22.15
2022-10-14T11:54:34.112Z,22.77
2022-10-14T11:57:07.032Z,19.60
2022-10-14T12:00:07.304Z,20.30
2022-10-14T12:02:58.598Z,21.52
2022-10-14T12:05:54.642Z,19.13
2022-10-14T12:08:35.657Z,16.60
2022-10-14T12:11:14.694Z,17.27
2022-10-14T12:13:43.614Z,18.27
2022-10-14T12:16:22.739Z,18.60
2022-10-14T12:18:54.296Z,18.40
2022-10-14T12:21:56.917Z,18.00
2022-10-14T12:24:27.703Z,17.27
2022-10-14T12:26:55.370Z,19.05
2022-10-14T12:29:25.565Z,19.85
2022-10-14T12:32:04.644Z,18.77
2022-10-14T12:34:42.417Z,17.92
2022-10-14T12:37:27.384Z,17.30
2022-10-14T12:40:03.326Z,18.42
2022-10-14T12:42:31.987Z,17.67
2022-10-14T12:45:01.653Z,16.70
2022-10-14T12:47:36.710Z,17.27
2022-10-14T12:50:31.129Z,15.37
2022-10-14T12:53:02.891Z,15.43
2022-10-14T12:55:35.414Z,15.10
2022-10-14T12:58:04.963Z,15.43
2022-10-14T13:00:39.036Z,13.57
2022-10-14T13:03:19.694Z,13.88
2022-10-14T13:05:46.736Z,13.02
2022-10-14T13:08:22.798Z,11.32
2022-10-14T13:10:55.250Z,11.30
2022-10-14T13:14:01.217Z,12.15
2022-10-14T13:16:27.886Z,11.02
2022-10-14T13:19:04.795Z,11.15
2022-10-14T13:21:37.209Z,10.93
2022-10-14T13:24:06.931Z,10.10
2022-10-14T13:26:55.095Z,10.55
2022-10-14T13:30:00.767Z,9.93
2022-10-14T13:32:43.844Z,10.20
2022-10-14T13:35:33.583Z,10.60
2022-10-14T13:38:12.742Z,10.52
2022-10-14T13:40:44.573Z,10.45
2022-10-14T13:43:19.976Z,10.20
2022-10-14T13:45:54.756Z,10.50
2022-10-14T13:48:30.655Z,8.90
2022-10-14T13:51:31.789Z,9.35
2022-10-14T13:54:27.438Z,10.07
2022-10-14T13:57:42.791Z,8.60
2022-10-14T14:02:51.651Z,8.77
2022-10-14T14:05:21.996Z,9.10
2022-10-14T14:10:51.558Z,8.10
2022-10-14T14:13:32.372Z,8.50
2022-10-14T14:15:59.215Z,8.93
2022-10-14T14:18:38.097Z,8.80
2022-10-14T14:21:15.869Z,9.82
2022-10-14T14:23:52.553Z,8.80
2022-10-14T14:26:20.360Z,9.13
2022-10-14T14:28:48.416Z,9.52
2022-10-14T14:31:22.091Z,9.50
2022-10-14T14:33:48.840Z,9.30
2022-10-14T14:36:27.440Z,9.20
2022-10-14T14:39:00.931Z,9.25
2022-10-14T14:41:30.785Z,9.55
2022-10-14T14:46:51.123Z,10.00
2022-10-14T14:49:24.911Z,9.52
2022-10-14T14:51:52.482Z,9.63
2022-10-14T14:54:21.791Z,9.93
2022-10-14T14:56:52.647Z,9.50
2022-10-14T14:59:22.349Z,8.45
2022-10-14T15:01:49.639Z,8.38
2022-10-14T15:04:22.970Z,7.75
2022-10-14T15:07:03.238Z,8.23
2022-10-14T15:09:44.770Z,8.60
2022-10-14T15:12:27.926Z,8.50
2022-10-14T15:14:58.208Z,8.48
2022-10-14T15:17:43.845Z,8.13
2022-10-14T15:20:10.622Z,8.45
2022-10-14T15:22:40.252Z,8.23
2022-10-14T15:25:09.948Z,8.10
2022-10-14T15:27:36.811Z,8.75
2022-10-14T15:30:29.371Z,9.02
2022-10-14T15:32:58.968Z,14.95
2022-10-14T15:35:27.020Z,12.20
2022-10-14T15:37:54.005Z,9.65
2022-10-14T15:40:28.885Z,9.60
2022-10-14T15:42:56.049Z,9.27
2022-10-14T15:45:23.171Z,10.00
2022-10-14T15:48:02.926Z,10.93
2022-10-14T15:50:29.695Z,11.18
2022-10-14T15:52:56.557Z,11.38
2022-10-14T15:55:26.425Z,10.90
2022-10-14T15:57:53.818Z,12.18
2022-10-14T16:00:22.885Z,13.20
2022-10-14T16:02:53.622Z,12.15
2022-10-14T16:05:21.706Z,10.75
2022-10-14T16:07:49.251Z,10.77
2022-10-14T16:10:21.616Z,11.45
2022-10-14T16:12:50.960Z,11.52
2022-10-14T16:15:30.527Z,12.43
2022-10-14T16:17:58.680Z,13.35
2022-10-14T16:20:27.413Z,11.52
2022-10-14T16:22:57.855Z,15.30
2022-10-14T16:25:41.600Z,11.50
2022-10-14T16:28:10.154Z,11.63
2022-10-14T16:30:41.020Z,11.20
2022-10-14T16:35:40.909Z,12.07
2022-10-14T16:38:11.711Z,11.85
2022-10-14T16:40:39.514Z,11.57
2022-10-14T16:43:06.611Z,13.35
2022-10-14T16:45:34.986Z,12.38
2022-10-14T16:48:03.436Z,13.15
2022-10-14T16:50:33.648Z,13.70
2022-10-14T16:53:05.184Z,18.65
2022-10-14T16:55:33.771Z,13.98
2022-10-14T16:58:00.618Z,12.25
2022-10-14T17:00:27.542Z,12.43
2022-10-14T17:02:54.211Z,12.40
2022-10-14T17:05:23.488Z,12.23
2022-10-14T17:07:50.388Z,11.73
2022-10-14T17:10:17.364Z,12.98
2022-10-14T17:12:44.006Z,13.50
2022-10-14T17:15:11.037Z,13.52
2022-10-14T17:17:37.719Z,14.18
2022-10-14T17:20:04.752Z,15.02
2022-10-14T17:22:31.462Z,14.38
2022-10-14T17:24:59.593Z,17.27
2022-10-14T17:27:26.207Z,15.02
2022-10-14T17:29:53.106Z,14.13
2022-10-14T17:32:20.183Z,13.15
2022-10-14T17:34:47.171Z,14.23
2022-10-14T17:37:13.833Z,13.40
2022-10-14T17:39:40.473Z,12.93
2022-10-14T17:42:10.303Z,13.50
2022-10-14T17:44:43.477Z,13.82
2022-10-14T17:47:10.458Z,14.40
2022-10-14T17:49:37.162Z,14.57
2022-10-14T17:52:03.830Z,15.27
2022-10-14T17:54:31.567Z,45.60
2022-10-14T17:56:59.512Z,17.45
2022-10-14T17:59:27.419Z,15.73
2022-10-14T18:02:03.977Z,14.85
2022-10-14T18:04:32.731Z,15.95
2022-10-14T18:06:59.841Z,16.30
2022-10-14T18:09:27.670Z,15.48
2022-10-14T18:12:08.374Z,15.75
2022-10-14T18:14:41.033Z,15.90
2022-10-14T18:17:11.021Z,16.23
2022-10-14T18:19:38.613Z,16.90
2022-10-14T18:22:07.367Z,16.80
2022-10-14T18:24:34.507Z,16.17
2022-10-14T18:27:02.652Z,17.95
2022-10-14T18:29:29.315Z,19.25
2022-10-14T18:31:56.957Z,18.65
2022-10-14T18:34:33.230Z,19.27
2022-10-14T18:37:01.276Z,18.33
2022-10-14T18:39:28.959Z,18.35
2022-10-14T18:41:56.707Z,18.65
2022-10-14T18:44:23.343Z,18.40
2022-10-14T18:46:53.230Z,18.08
2022-10-14T18:49:22.807Z,17.77
2022-10-14T18:51:53.143Z,18.67
2022-10-14T18:54:22.871Z,19.40
2022-10-14T18:56:50.754Z,20.08
2022-10-14T18:59:21.509Z,19.75
2022-10-14T19:01:50.517Z,18.23
2022-10-14T19:04:19.480Z,18.35
2022-10-14T19:06:46.595Z,18.55
2022-10-14T19:09:15.510Z,17.23
2022-10-14T19:11:44.567Z,18.02
2022-10-14T19:14:16.319Z,18.75
2022-10-14T19:16:53.092Z,18.23
2022-10-14T19:19:21.042Z,18.63
2022-10-14T19:21:51.674Z,18.13
2022-10-14T19:24:19.398Z,21.15
2022-10-14T19:26:48.800Z,17.48
2022-10-14T19:29:16.217Z,16.60
2022-10-14T19:31:45.983Z,17.10
2022-10-14T19:34:15.377Z,16.02
2022-10-14T19:36:43.968Z,15.63
2022-10-14T19:39:14.257Z,16.23
2022-10-14T19:41:40.875Z,15.02
2022-10-14T19:44:07.720Z,15.15
2022-10-14T19:46:34.347Z,15.63
2022-10-14T19:49:02.300Z,15.65
2022-10-14T19:51:29.149Z,15.10
2022-10-14T19:53:56.411Z,14.48
2022-10-14T19:56:23.399Z,14.50
2022-10-14T19:58:52.340Z,14.85
2022-10-14T20:01:19.932Z,14.60
2022-10-14T20:03:46.743Z,14.80
2022-10-14T20:06:13.879Z,16.13
2022-10-14T20:08:40.685Z,14.43
2022-10-14T20:11:11.544Z,14.50
2022-10-14T20:13:39.801Z,18.58
2022-10-14T20:16:09.172Z,15.35
2022-10-14T20:18:37.589Z,14.68
2022-10-14T20:21:07.268Z,14.38
2022-10-14T20:23:36.456Z,14.23
2022-10-14T20:26:11.569Z,14.85
2022-10-14T20:28:40.314Z,14.75
2022-10-14T20:31:08.662Z,14.43
2022-10-14T20:33:35.482Z,15.35
2022-10-14T20:36:20.071Z,15.95
2022-10-14T20:38:47.355Z,16.65
2022-10-14T20:41:23.128Z,15.95
2022-10-14T20:46:16.945Z,18.70
2022-10-14T20:48:44.195Z,18.13
2022-10-14T20:51:14.534Z,18.23
2022-10-14T20:56:14.172Z,17.50
2022-10-14T20:58:41.300Z,19.00
2022-10-14T21:01:16.340Z,28.50
2022-10-14T21:03:45.037Z,19.38
2022-10-14T21:06:15.174Z,20.15
2022-10-14T21:08:42.137Z,19.90
2022-10-14T21:11:14.794Z,20.58
2022-10-14T21:13:47.773Z,20.67
2022-10-14T21:16:25.766Z,21.55
2022-10-14T21:18:58.028Z,20.73
2022-10-14T21:21:26.770Z,20.83
2022-10-14T21:23:53.859Z,20.38
2022-10-14T21:26:20.672Z,20.92
2022-10-14T21:28:47.434Z,25.10
2022-10-14T21:31:18.759Z,22.48
2022-10-14T21:33:46.883Z,23.38
2022-10-14T21:36:14.818Z,22.85
2022-10-14T21:38:41.995Z,23.67
2022-10-14T21:41:09.159Z,23.92
2022-10-14T21:43:38.386Z,23.38
2022-10-14T21:46:08.508Z,23.70
2022-10-14T21:48:36.903Z,24.05
2022-10-14T21:51:14.975Z,27.05
2022-10-14T21:53:44.614Z,25.48
2022-10-14T21:56:12.658Z,25.05
2022-10-14T21:58:41.301Z,26.05
2022-10-14T22:01:14.699Z,26.30
2022-10-14T22:03:44.369Z,26.05
2022-10-14T22:06:14.631Z,25.45
2022-10-14T22:08:45.552Z,27.02
2022-10-14T22:11:21.313Z,28.70
2022-10-14T22:16:16.470Z,28.58
2022-10-14T22:18:49.039Z,27.95
2022-10-14T22:21:17.629Z,26.95
2022-10-14T22:23:45.352Z,27.98
2022-10-14T22:26:13.966Z,28.70
2022-10-14T22:28:40.766Z,28.88
2022-10-14T22:31:17.693Z,27.52
2022-10-14T22:33:44.530Z,28.95
2022-10-14T22:36:11.303Z,27.63
2022-10-14T22:38:41.770Z,27.77
2022-10-14T22:41:11.004Z,28.27
2022-10-14T22:43:38.238Z,28.48
2022-10-14T22:46:11.408Z,29.08
2022-10-14T22:48:38.828Z,30.67
2022-10-14T22:51:07.252Z,30.85
2022-10-14T22:53:34.820Z,29.15
2022-10-14T22:56:01.991Z,29.73
2022-10-14T22:58:28.745Z,30.15
2022-10-14T23:00:55.488Z,28.38
2022-10-14T23:03:22.358Z,29.27
2022-10-14T23:05:49.060Z,30.52
2022-10-14T23:08:15.694Z,29.90
2022-10-14T23:10:44.065Z,29.75
2022-10-14T23:13:10.735Z,29.77
2022-10-14T23:15:39.181Z,32.38
2022-10-14T23:18:05.922Z,29.67
2022-10-14T23:20:41.702Z,29.88
2022-10-14T23:25:40.576Z,28.98
2022-10-14T23:28:07.292Z,29.02
2022-10-14T23:30:34.419Z,29.27
2022-10-14T23:33:05.065Z,30.02
2022-10-14T23:35:42.439Z,29.30
2022-10-14T23:38:11.908Z,29.02
2022-10-14T23:40:38.590Z,28.80
2022-10-14T23:43:05.268Z,29.05
2022-10-14T23:45:31.955Z,29.48
2022-10-14T23:47:58.598Z,29.05
2022-10-14T23:50:25.764Z,30.45
2022-10-14T23:52:52.470Z,28.48
2022-10-14T23:55:19.062Z,29.70
2022-10-14T23:57:45.691Z,29.10
